sensor_id;sensor_type;location;lat;lon;timestamp;temperature;humidity
84435;SHT30;74664;45.620;5.138;2024-03-06T00:00:42;7.70;68.16
84435;SHT30;74664;45.620;5.138;2024-03-06T00:03:09;7.70;68.11
84435;SHT30;74664;45.620;5.138;2024-03-06T00:05:37;7.75;67.93
84435;SHT30;74664;45.620;5.138;2024-03-06T00:08:04;7.75;67.93
84435;SHT30;74664;45.620;5.138;2024-03-06T00:10:31;7.75;67.97
84435;SHT30;74664;45.620;5.138;2024-03-06T00:12:57;7.77;68.04
84435;SHT30;74664;45.620;5.138;2024-03-06T00:15:24;7.82;67.96
84435;SHT30;74664;45.620;5.138;2024-03-06T00:17:51;7.80;67.88
84435;SHT30;74664;45.620;5.138;2024-03-06T00:20:17;7.82;67.87
84435;SHT30;74664;45.620;5.138;2024-03-06T00:22:45;7.83;67.87
84435;SHT30;74664;45.620;5.138;2024-03-06T00:25:12;7.82;67.95
84435;SHT30;74664;45.620;5.138;2024-03-06T00:27:39;7.84;67.88
84435;SHT30;74664;45.620;5.138;2024-03-06T00:30:07;7.83;67.88
84435;SHT30;74664;45.620;5.138;2024-03-06T00:32:33;7.83;67.85
84435;SHT30;74664;45.620;5.138;2024-03-06T00:35:00;7.83;67.84
84435;SHT30;74664;45.620;5.138;2024-03-06T00:37:27;7.83;67.81
84435;SHT30;74664;45.620;5.138;2024-03-06T00:39:55;7.80;67.92
84435;SHT30;74664;45.620;5.138;2024-03-06T00:42:22;7.83;67.86
84435;SHT30;74664;45.620;5.138;2024-03-06T00:44:49;7.79;67.83
84435;SHT30;74664;45.620;5.138;2024-03-06T00:47:16;7.77;67.84
84435;SHT30;74664;45.620;5.138;2024-03-06T00:49:42;7.77;67.79
84435;SHT30;74664;45.620;5.138;2024-03-06T00:52:09;7.75;67.73
84435;SHT30;74664;45.620;5.138;2024-03-06T00:54:36;7.75;67.71
84435;SHT30;74664;45.620;5.138;2024-03-06T00:57:04;7.70;67.78
84435;SHT30;74664;45.620;5.138;2024-03-06T00:59:30;7.72;67.81
84435;SHT30;74664;45.620;5.138;2024-03-06T01:01:57;7.70;67.83
84435;SHT30;74664;45.620;5.138;2024-03-06T01:04:24;7.70;67.73
84435;SHT30;74664;45.620;5.138;2024-03-06T01:06:50;7.69;67.70
84435;SHT30;74664;45.620;5.138;2024-03-06T01:09:17;7.72;67.58
84435;SHT30;74664;45.620;5.138;2024-03-06T01:11:44;7.73;67.55
84435;SHT30;74664;45.620;5.138;2024-03-06T01:14:13;7.69;67.37
84435;SHT30;74664;45.620;5.138;2024-03-06T01:16:40;7.67;67.47
84435;SHT30;74664;45.620;5.138;2024-03-06T01:19:07;7.66;67.38
84435;SHT30;74664;45.620;5.138;2024-03-06T01:21:33;7.69;67.26
84435;SHT30;74664;45.620;5.138;2024-03-06T01:24:00;7.65;67.34
84435;SHT30;74664;45.620;5.138;2024-03-06T01:26:27;7.66;67.29
84435;SHT30;74664;45.620;5.138;2024-03-06T01:28:54;7.65;67.31
84435;SHT30;74664;45.620;5.138;2024-03-06T01:31:22;7.67;67.32
84435;SHT30;74664;45.620;5.138;2024-03-06T01:33:49;7.67;67.22
84435;SHT30;74664;45.620;5.138;2024-03-06T01:36:15;7.65;67.21
84435;SHT30;74664;45.620;5.138;2024-03-06T01:38:42;7.65;67.22
84435;SHT30;74664;45.620;5.138;2024-03-06T01:41:11;7.63;67.21
84435;SHT30;74664;45.620;5.138;2024-03-06T01:43:38;7.63;67.06
84435;SHT30;74664;45.620;5.138;2024-03-06T01:46:05;7.62;67.07
84435;SHT30;74664;45.620;5.138;2024-03-06T01:48:33;7.59;67.13
84435;SHT30;74664;45.620;5.138;2024-03-06T01:51:02;7.62;67.09
84435;SHT30;74664;45.620;5.138;2024-03-06T01:53:31;7.61;67.09
84435;SHT30;74664;45.620;5.138;2024-03-06T01:55:59;7.61;67.10
84435;SHT30;74664;45.620;5.138;2024-03-06T01:58:27;7.61;67.07
84435;SHT30;74664;45.620;5.138;2024-03-06T02:00:54;7.58;66.97
84435;SHT30;74664;45.620;5.138;2024-03-06T02:03:21;7.56;66.93
84435;SHT30;74664;45.620;5.138;2024-03-06T02:05:50;7.56;67.04
84435;SHT30;74664;45.620;5.138;2024-03-06T02:08:17;7.56;67.00
84435;SHT30;74664;45.620;5.138;2024-03-06T02:10:44;7.54;66.95
84435;SHT30;74664;45.620;5.138;2024-03-06T02:13:12;7.55;66.97
84435;SHT30;74664;45.620;5.138;2024-03-06T02:15:39;7.52;66.96
84435;SHT30;74664;45.620;5.138;2024-03-06T02:18:07;7.56;66.95
84435;SHT30;74664;45.620;5.138;2024-03-06T02:20:35;7.54;66.89
84435;SHT30;74664;45.620;5.138;2024-03-06T02:23:04;7.52;66.95
84435;SHT30;74664;45.620;5.138;2024-03-06T02:25:30;7.49;67.00
84435;SHT30;74664;45.620;5.138;2024-03-06T02:27:57;7.52;67.03
84435;SHT30;74664;45.620;5.138;2024-03-06T02:30:24;7.52;66.96
84435;SHT30;74664;45.620;5.138;2024-03-06T02:32:51;7.49;66.87
84435;SHT30;74664;45.620;5.138;2024-03-06T02:35:17;7.56;66.83
84435;SHT30;74664;45.620;5.138;2024-03-06T02:37:46;7.55;66.83
84435;SHT30;74664;45.620;5.138;2024-03-06T02:40:12;7.55;66.86
84435;SHT30;74664;45.620;5.138;2024-03-06T02:42:39;7.55;66.83
84435;SHT30;74664;45.620;5.138;2024-03-06T02:45:06;7.56;66.79
84435;SHT30;74664;45.620;5.138;2024-03-06T02:47:33;7.58;66.86
84435;SHT30;74664;45.620;5.138;2024-03-06T02:50:00;7.55;66.75
84435;SHT30;74664;45.620;5.138;2024-03-06T02:52:27;7.58;66.83
84435;SHT30;74664;45.620;5.138;2024-03-06T02:54:56;7.58;66.84
84435;SHT30;74664;45.620;5.138;2024-03-06T02:57:23;7.55;66.84
84435;SHT30;74664;45.620;5.138;2024-03-06T02:59:49;7.58;66.94
84435;SHT30;74664;45.620;5.138;2024-03-06T03:02:16;7.59;66.89
84435;SHT30;74664;45.620;5.138;2024-03-06T03:04:43;7.59;66.85
84435;SHT30;74664;45.620;5.138;2024-03-06T03:07:10;7.61;66.89
84435;SHT30;74664;45.620;5.138;2024-03-06T03:09:37;7.62;66.93
84435;SHT30;74664;45.620;5.138;2024-03-06T03:12:05;7.63;67.01
84435;SHT30;74664;45.620;5.138;2024-03-06T03:14:32;7.61;66.85
84435;SHT30;74664;45.620;5.138;2024-03-06T03:16:59;7.62;66.94
84435;SHT30;74664;45.620;5.138;2024-03-06T03:19:26;7.65;66.86
84435;SHT30;74664;45.620;5.138;2024-03-06T03:21:53;7.66;66.82
84435;SHT30;74664;45.620;5.138;2024-03-06T03:24:19;7.65;66.78
84435;SHT30;74664;45.620;5.138;2024-03-06T03:26:47;7.69;66.78
84435;SHT30;74664;45.620;5.138;2024-03-06T03:29:15;7.65;66.77
84435;SHT30;74664;45.620;5.138;2024-03-06T03:31:41;7.69;66.70
84435;SHT30;74664;45.620;5.138;2024-03-06T03:34:08;7.69;66.68
84435;SHT30;74664;45.620;5.138;2024-03-06T03:36:39;7.72;66.70
84435;SHT30;74664;45.620;5.138;2024-03-06T03:39:06;7.75;66.69
84435;SHT30;74664;45.620;5.138;2024-03-06T03:41:42;7.75;66.72
84435;SHT30;74664;45.620;5.138;2024-03-06T03:44:08;7.76;66.80
84435;SHT30;74664;45.620;5.138;2024-03-06T03:46:36;7.77;66.77
84435;SHT30;74664;45.620;5.138;2024-03-06T03:49:03;7.77;66.59
84435;SHT30;74664;45.620;5.138;2024-03-06T03:51:30;7.76;66.63
84435;SHT30;74664;45.620;5.138;2024-03-06T03:53:56;7.73;66.58
84435;SHT30;74664;45.620;5.138;2024-03-06T03:56:23;7.70;66.52
84435;SHT30;74664;45.620;5.138;2024-03-06T03:58:50;7.72;66.60
84435;SHT30;74664;45.620;5.138;2024-03-06T04:01:16;7.70;66.65
84435;SHT30;74664;45.620;5.138;2024-03-06T04:03:44;7.72;66.63
84435;SHT30;74664;45.620;5.138;2024-03-06T04:06:11;7.70;66.70
84435;SHT30;74664;45.620;5.138;2024-03-06T04:08:38;7.75;66.71
84435;SHT30;74664;45.620;5.138;2024-03-06T04:11:04;7.75;66.85
84435;SHT30;74664;45.620;5.138;2024-03-06T04:13:35;7.77;66.91
84435;SHT30;74664;45.620;5.138;2024-03-06T04:16:02;7.75;66.78
84435;SHT30;74664;45.620;5.138;2024-03-06T04:18:30;7.76;66.88
84435;SHT30;74664;45.620;5.138;2024-03-06T04:21:02;7.75;66.81
84435;SHT30;74664;45.620;5.138;2024-03-06T04:23:30;7.73;66.93
84435;SHT30;74664;45.620;5.138;2024-03-06T04:25:57;7.77;67.11
84435;SHT30;74664;45.620;5.138;2024-03-06T04:28:23;7.77;67.09
84435;SHT30;74664;45.620;5.138;2024-03-06T04:30:50;7.76;67.24
84435;SHT30;74664;45.620;5.138;2024-03-06T04:33:17;7.76;67.35
84435;SHT30;74664;45.620;5.138;2024-03-06T04:35:43;7.77;67.34
84435;SHT30;74664;45.620;5.138;2024-03-06T04:38:11;7.79;67.45
84435;SHT30;74664;45.620;5.138;2024-03-06T04:40:39;7.79;67.42
84435;SHT30;74664;45.620;5.138;2024-03-06T04:43:06;7.79;67.42
84435;SHT30;74664;45.620;5.138;2024-03-06T04:45:33;7.79;67.32
84435;SHT30;74664;45.620;5.138;2024-03-06T04:47:59;7.79;67.23
84435;SHT30;74664;45.620;5.138;2024-03-06T04:50:26;7.79;67.35
84435;SHT30;74664;45.620;5.138;2024-03-06T04:52:53;7.80;67.33
84435;SHT30;74664;45.620;5.138;2024-03-06T04:55:22;7.83;67.39
84435;SHT30;74664;45.620;5.138;2024-03-06T04:57:51;7.83;67.26
84435;SHT30;74664;45.620;5.138;2024-03-06T05:00:18;7.82;67.39
84435;SHT30;74664;45.620;5.138;2024-03-06T05:02:45;7.82;67.31
84435;SHT30;74664;45.620;5.138;2024-03-06T05:05:11;7.83;67.61
84435;SHT30;74664;45.620;5.138;2024-03-06T05:07:38;7.82;67.85
84435;SHT30;74664;45.620;5.138;2024-03-06T05:10:06;7.84;68.13
84435;SHT30;74664;45.620;5.138;2024-03-06T05:12:35;7.87;68.24
84435;SHT30;74664;45.620;5.138;2024-03-06T05:15:02;7.86;68.17
84435;SHT30;74664;45.620;5.138;2024-03-06T05:17:29;7.87;68.08
84435;SHT30;74664;45.620;5.138;2024-03-06T05:19:55;7.90;68.03
84435;SHT30;74664;45.620;5.138;2024-03-06T05:22:22;7.86;67.98
84435;SHT30;74664;45.620;5.138;2024-03-06T05:24:49;7.90;67.95
84435;SHT30;74664;45.620;5.138;2024-03-06T05:27:16;7.87;67.91
84435;SHT30;74664;45.620;5.138;2024-03-06T05:29:44;7.89;68.00
84435;SHT30;74664;45.620;5.138;2024-03-06T05:32:11;7.87;68.07
84435;SHT30;74664;45.620;5.138;2024-03-06T05:34:38;7.90;68.19
84435;SHT30;74664;45.620;5.138;2024-03-06T05:37:05;7.91;68.10
84435;SHT30;74664;45.620;5.138;2024-03-06T05:39:32;7.93;68.10
84435;SHT30;74664;45.620;5.138;2024-03-06T05:42:02;7.91;68.23
84435;SHT30;74664;45.620;5.138;2024-03-06T05:44:29;7.89;68.24
84435;SHT30;74664;45.620;5.138;2024-03-06T05:46:59;7.87;68.21
84435;SHT30;74664;45.620;5.138;2024-03-06T05:49:26;7.89;68.30
84435;SHT30;74664;45.620;5.138;2024-03-06T05:51:53;7.87;68.29
84435;SHT30;74664;45.620;5.138;2024-03-06T05:54:20;7.84;68.15
84435;SHT30;74664;45.620;5.138;2024-03-06T05:56:47;7.84;68.21
84435;SHT30;74664;45.620;5.138;2024-03-06T05:59:15;7.83;68.14
84435;SHT30;74664;45.620;5.138;2024-03-06T06:01:41;7.84;68.08
84435;SHT30;74664;45.620;5.138;2024-03-06T06:04:10;7.84;68.18
84435;SHT30;74664;45.620;5.138;2024-03-06T06:06:38;7.80;68.20
84435;SHT30;74664;45.620;5.138;2024-03-06T06:09:06;7.80;68.29
84435;SHT30;74664;45.620;5.138;2024-03-06T06:11:32;7.82;68.42
84435;SHT30;74664;45.620;5.138;2024-03-06T06:13:59;7.82;68.46
84435;SHT30;74664;45.620;5.138;2024-03-06T06:16:26;7.79;68.49
84435;SHT30;74664;45.620;5.138;2024-03-06T06:18:53;7.82;68.60
84435;SHT30;74664;45.620;5.138;2024-03-06T06:21:21;7.79;68.58
84435;SHT30;74664;45.620;5.138;2024-03-06T06:23:47;7.79;68.69
84435;SHT30;74664;45.620;5.138;2024-03-06T06:26:14;7.76;68.73
84435;SHT30;74664;45.620;5.138;2024-03-06T06:28:41;7.75;68.94
84435;SHT30;74664;45.620;5.138;2024-03-06T06:31:07;7.75;69.21
84435;SHT30;74664;45.620;5.138;2024-03-06T06:33:34;7.76;69.18
84435;SHT30;74664;45.620;5.138;2024-03-06T06:36:00;7.75;68.90
84435;SHT30;74664;45.620;5.138;2024-03-06T06:38:28;7.72;68.96
84435;SHT30;74664;45.620;5.138;2024-03-06T06:40:55;7.72;68.87
84435;SHT30;74664;45.620;5.138;2024-03-06T06:43:22;7.67;68.74
84435;SHT30;74664;45.620;5.138;2024-03-06T06:45:49;7.65;68.68
84435;SHT30;74664;45.620;5.138;2024-03-06T06:48:16;7.61;68.76
84435;SHT30;74664;45.620;5.138;2024-03-06T06:50:43;7.59;69.04
84435;SHT30;74664;45.620;5.138;2024-03-06T06:53:13;7.61;68.93
84435;SHT30;74664;45.620;5.138;2024-03-06T06:55:41;7.56;69.06
84435;SHT30;74664;45.620;5.138;2024-03-06T06:58:08;7.56;68.94
84435;SHT30;74664;45.620;5.138;2024-03-06T07:00:35;7.54;69.14
84435;SHT30;74664;45.620;5.138;2024-03-06T07:03:02;7.54;69.30
84435;SHT30;74664;45.620;5.138;2024-03-06T07:05:29;7.54;69.42
84435;SHT30;74664;45.620;5.138;2024-03-06T07:07:56;7.55;69.50
84435;SHT30;74664;45.620;5.138;2024-03-06T07:10:22;7.58;69.57
84435;SHT30;74664;45.620;5.138;2024-03-06T07:12:51;7.63;69.76
84435;SHT30;74664;45.620;5.138;2024-03-06T07:15:18;7.65;69.58
84435;SHT30;74664;45.620;5.138;2024-03-06T07:17:44;7.66;69.70
84435;SHT30;74664;45.620;5.138;2024-03-06T07:20:11;7.66;69.05
84435;SHT30;74664;45.620;5.138;2024-03-06T07:22:39;7.59;69.20
84435;SHT30;74664;45.620;5.138;2024-03-06T07:25:06;7.62;69.37
84435;SHT30;74664;45.620;5.138;2024-03-06T07:27:33;7.66;69.23
84435;SHT30;74664;45.620;5.138;2024-03-06T07:30:01;7.72;69.23
84435;SHT30;74664;45.620;5.138;2024-03-06T07:32:28;7.77;69.20
84435;SHT30;74664;45.620;5.138;2024-03-06T07:34:54;7.82;69.16
84435;SHT30;74664;45.620;5.138;2024-03-06T07:37:21;7.89;69.25
84435;SHT30;74664;45.620;5.138;2024-03-06T07:39:47;7.93;69.01
84435;SHT30;74664;45.620;5.138;2024-03-06T07:42:14;8.00;68.92
84435;SHT30;74664;45.620;5.138;2024-03-06T07:44:43;8.06;68.88
84435;SHT30;74664;45.620;5.138;2024-03-06T07:47:11;8.11;68.67
84435;SHT30;74664;45.620;5.138;2024-03-06T07:49:39;8.14;68.61
84435;SHT30;74664;45.620;5.138;2024-03-06T07:52:06;8.24;68.54
84435;SHT30;74664;45.620;5.138;2024-03-06T07:54:33;8.28;68.55
84435;SHT30;74664;45.620;5.138;2024-03-06T07:56:59;8.34;68.29
84435;SHT30;74664;45.620;5.138;2024-03-06T07:59:26;8.40;68.32
84435;SHT30;74664;45.620;5.138;2024-03-06T08:01:53;8.44;68.14
84435;SHT30;74664;45.620;5.138;2024-03-06T08:04:22;8.49;68.03
84435;SHT30;74664;45.620;5.138;2024-03-06T08:06:49;8.54;67.83
84435;SHT30;74664;45.620;5.138;2024-03-06T08:09:15;8.59;67.59
84435;SHT30;74664;45.620;5.138;2024-03-06T08:11:44;8.64;67.55
84435;SHT30;74664;45.620;5.138;2024-03-06T08:14:11;8.65;67.33
84435;SHT30;74664;45.620;5.138;2024-03-06T08:16:40;8.71;67.21
84435;SHT30;74664;45.620;5.138;2024-03-06T08:19:06;8.73;67.06
84435;SHT30;74664;45.620;5.138;2024-03-06T08:21:34;8.72;66.96
84435;SHT30;74664;45.620;5.138;2024-03-06T08:24:01;8.76;66.93
84435;SHT30;74664;45.620;5.138;2024-03-06T08:26:28;8.79;66.89
84435;SHT30;74664;45.620;5.138;2024-03-06T08:28:54;8.82;66.87
84435;SHT30;74664;45.620;5.138;2024-03-06T08:31:21;8.86;66.59
84435;SHT30;74664;45.620;5.138;2024-03-06T08:33:48;8.87;66.49
84435;SHT30;74664;45.620;5.138;2024-03-06T08:36:14;8.90;66.28
84435;SHT30;74664;45.620;5.138;2024-03-06T08:38:42;8.92;66.37
84435;SHT30;74664;45.620;5.138;2024-03-06T08:41:09;8.93;66.32
84435;SHT30;74664;45.620;5.138;2024-03-06T08:43:36;8.97;66.29
84435;SHT30;74664;45.620;5.138;2024-03-06T08:46:02;9.02;66.11
84435;SHT30;74664;45.620;5.138;2024-03-06T08:48:29;9.07;66.25
84435;SHT30;74664;45.620;5.138;2024-03-06T08:50:56;9.07;66.03
84435;SHT30;74664;45.620;5.138;2024-03-06T08:53:23;9.12;65.88
84435;SHT30;74664;45.620;5.138;2024-03-06T08:55:51;9.14;65.76
84435;SHT30;74664;45.620;5.138;2024-03-06T08:58:17;9.14;65.78
84435;SHT30;74664;45.620;5.138;2024-03-06T09:00:45;9.14;65.78
84435;SHT30;74664;45.620;5.138;2024-03-06T09:03:13;9.16;65.61
84435;SHT30;74664;45.620;5.138;2024-03-06T09:05:41;9.17;65.55
84435;SHT30;74664;45.620;5.138;2024-03-06T09:08:07;9.17;65.71
84435;SHT30;74664;45.620;5.138;2024-03-06T09:10:35;9.16;65.44
84435;SHT30;74664;45.620;5.138;2024-03-06T09:13:03;9.20;65.49
84435;SHT30;74664;45.620;5.138;2024-03-06T09:15:30;9.27;65.35
84435;SHT30;74664;45.620;5.138;2024-03-06T09:17:56;9.31;65.19
84435;SHT30;74664;45.620;5.138;2024-03-06T09:20:23;9.35;65.20
84435;SHT30;74664;45.620;5.138;2024-03-06T09:22:50;9.37;64.98
84435;SHT30;74664;45.620;5.138;2024-03-06T09:25:19;9.44;65.26
84435;SHT30;74664;45.620;5.138;2024-03-06T09:27:46;9.47;65.20
84435;SHT30;74664;45.620;5.138;2024-03-06T09:30:14;9.45;64.79
84435;SHT30;74664;45.620;5.138;2024-03-06T09:32:42;9.54;64.57
84435;SHT30;74664;45.620;5.138;2024-03-06T09:35:09;9.58;64.54
84435;SHT30;74664;45.620;5.138;2024-03-06T09:37:36;9.62;64.29
84435;SHT30;74664;45.620;5.138;2024-03-06T09:40:03;9.67;64.00
84435;SHT30;74664;45.620;5.138;2024-03-06T09:42:30;9.67;63.78
84435;SHT30;74664;45.620;5.138;2024-03-06T09:44:57;9.67;64.22
84435;SHT30;74664;45.620;5.138;2024-03-06T09:47:25;9.71;63.97
84435;SHT30;74664;45.620;5.138;2024-03-06T09:49:56;9.81;63.93
84435;SHT30;74664;45.620;5.138;2024-03-06T09:52:24;9.82;63.88
84435;SHT30;74664;45.620;5.138;2024-03-06T09:54:51;9.81;63.31
84435;SHT30;74664;45.620;5.138;2024-03-06T09:57:19;9.78;63.61
84435;SHT30;74664;45.620;5.138;2024-03-06T09:59:45;9.79;63.85
84435;SHT30;74664;45.620;5.138;2024-03-06T10:02:22;9.79;63.86
84435;SHT30;74664;45.620;5.138;2024-03-06T10:04:56;9.75;63.92
84435;SHT30;74664;45.620;5.138;2024-03-06T10:07:23;9.71;63.58
84435;SHT30;74664;45.620;5.138;2024-03-06T10:09:52;9.65;63.53
84435;SHT30;74664;45.620;5.138;2024-03-06T10:12:18;9.65;63.98
84435;SHT30;74664;45.620;5.138;2024-03-06T10:14:51;9.71;64.48
84435;SHT30;74664;45.620;5.138;2024-03-06T10:17:20;9.75;63.80
84435;SHT30;74664;45.620;5.138;2024-03-06T10:19:48;9.75;63.70
84435;SHT30;74664;45.620;5.138;2024-03-06T10:22:18;9.74;63.21
84435;SHT30;74664;45.620;5.138;2024-03-06T10:24:45;9.72;63.62
84435;SHT30;74664;45.620;5.138;2024-03-06T10:27:15;9.77;63.72
84435;SHT30;74664;45.620;5.138;2024-03-06T10:29:43;9.84;63.96
84435;SHT30;74664;45.620;5.138;2024-03-06T10:32:10;9.92;63.84
84435;SHT30;74664;45.620;5.138;2024-03-06T10:34:37;10.06;63.99
84435;SHT30;74664;45.620;5.138;2024-03-06T10:37:05;10.19;63.83
84435;SHT30;74664;45.620;5.138;2024-03-06T10:39:35;10.23;62.85
84435;SHT30;74664;45.620;5.138;2024-03-06T10:42:06;10.28;62.74
84435;SHT30;74664;45.620;5.138;2024-03-06T10:44:34;10.29;62.30
84435;SHT30;74664;45.620;5.138;2024-03-06T10:47:05;10.23;62.14
84435;SHT30;74664;45.620;5.138;2024-03-06T10:49:32;10.19;62.33
84435;SHT30;74664;45.620;5.138;2024-03-06T10:52:00;10.13;62.34
84435;SHT30;74664;45.620;5.138;2024-03-06T10:54:30;10.09;62.53
84435;SHT30;74664;45.620;5.138;2024-03-06T10:56:59;10.09;62.73
84435;SHT30;74664;45.620;5.138;2024-03-06T10:59:26;10.06;62.41
84435;SHT30;74664;45.620;5.138;2024-03-06T11:01:58;10.02;62.54
84435;SHT30;74664;45.620;5.138;2024-03-06T11:04:27;10.01;62.66
84435;SHT30;74664;45.620;5.138;2024-03-06T11:06:55;10.01;62.72
84435;SHT30;74664;45.620;5.138;2024-03-06T11:09:22;10.06;62.39
84435;SHT30;74664;45.620;5.138;2024-03-06T11:11:50;10.03;62.47
84435;SHT30;74664;45.620;5.138;2024-03-06T11:14:21;10.06;61.98
84435;SHT30;74664;45.620;5.138;2024-03-06T11:17:01;10.03;61.68
84435;SHT30;74664;45.620;5.138;2024-03-06T11:19:29;10.02;62.10
84435;SHT30;74664;45.620;5.138;2024-03-06T11:21:56;10.06;62.36
84435;SHT30;74664;45.620;5.138;2024-03-06T11:24:23;10.08;61.42
84435;SHT30;74664;45.620;5.138;2024-03-06T11:26:57;10.08;62.19
84435;SHT30;74664;45.620;5.138;2024-03-06T11:29:27;10.12;61.97
84435;SHT30;74664;45.620;5.138;2024-03-06T11:32:06;10.20;61.94
84435;SHT30;74664;45.620;5.138;2024-03-06T11:34:36;10.28;62.03
84435;SHT30;74664;45.620;5.138;2024-03-06T11:37:04;10.34;61.66
84435;SHT30;74664;45.620;5.138;2024-03-06T11:39:36;10.34;61.47
84435;SHT30;74664;45.620;5.138;2024-03-06T11:42:04;10.34;60.29
84435;SHT30;74664;45.620;5.138;2024-03-06T11:44:35;10.29;60.14
84435;SHT30;74664;45.620;5.138;2024-03-06T11:47:03;10.23;60.35
84435;SHT30;74664;45.620;5.138;2024-03-06T11:49:31;10.22;60.06
84435;SHT30;74664;45.620;5.138;2024-03-06T11:52:00;10.24;60.97
84435;SHT30;74664;45.620;5.138;2024-03-06T11:54:28;10.20;61.27
84435;SHT30;74664;45.620;5.138;2024-03-06T11:56:56;10.24;61.05
84435;SHT30;74664;45.620;5.138;2024-03-06T11:59:23;10.23;61.14
84435;SHT30;74664;45.620;5.138;2024-03-06T12:01:52;10.19;59.80
84435;SHT30;74664;45.620;5.138;2024-03-06T12:04:19;10.17;60.21
84435;SHT30;74664;45.620;5.138;2024-03-06T12:06:46;10.19;60.70
84435;SHT30;74664;45.620;5.138;2024-03-06T12:09:13;10.22;59.75
84435;SHT30;74664;45.620;5.138;2024-03-06T12:11:41;10.22;60.20
84435;SHT30;74664;45.620;5.138;2024-03-06T12:14:13;10.20;59.15
84435;SHT30;74664;45.620;5.138;2024-03-06T12:16:41;10.24;59.61
84435;SHT30;74664;45.620;5.138;2024-03-06T12:19:09;10.26;60.24
84435;SHT30;74664;45.620;5.138;2024-03-06T12:21:39;10.28;59.63
84435;SHT30;74664;45.620;5.138;2024-03-06T12:24:07;10.32;58.73
84435;SHT30;74664;45.620;5.138;2024-03-06T12:26:34;10.30;59.95
84435;SHT30;74664;45.620;5.138;2024-03-06T12:29:08;10.34;59.29
84435;SHT30;74664;45.620;5.138;2024-03-06T12:31:36;10.37;59.62
84435;SHT30;74664;45.620;5.138;2024-03-06T12:34:05;10.36;58.40
84435;SHT30;74664;45.620;5.138;2024-03-06T12:36:33;10.39;58.32
84435;SHT30;74664;45.620;5.138;2024-03-06T12:39:01;10.40;58.72
84435;SHT30;74664;45.620;5.138;2024-03-06T12:41:28;10.47;57.57
84435;SHT30;74664;45.620;5.138;2024-03-06T12:43:55;10.49;57.36
84435;SHT30;74664;45.620;5.138;2024-03-06T12:46:22;10.51;56.42
84435;SHT30;74664;45.620;5.138;2024-03-06T12:48:51;10.53;57.06
84435;SHT30;74664;45.620;5.138;2024-03-06T12:51:18;10.56;57.29
84435;SHT30;74664;45.620;5.138;2024-03-06T12:53:46;10.56;56.45
84435;SHT30;74664;45.620;5.138;2024-03-06T12:56:13;10.59;55.70
84435;SHT30;74664;45.620;5.138;2024-03-06T12:58:40;10.61;55.92
84435;SHT30;74664;45.620;5.138;2024-03-06T13:01:06;10.61;56.81
84435;SHT30;74664;45.620;5.138;2024-03-06T13:03:33;10.61;56.43
84435;SHT30;74664;45.620;5.138;2024-03-06T13:06:00;10.67;57.18
84435;SHT30;74664;45.620;5.138;2024-03-06T13:08:27;10.70;53.61
84435;SHT30;74664;45.620;5.138;2024-03-06T13:10:55;10.77;55.78
84435;SHT30;74664;45.620;5.138;2024-03-06T13:13:21;10.75;55.85
84435;SHT30;74664;45.620;5.138;2024-03-06T13:15:50;10.85;55.41
84435;SHT30;74664;45.620;5.138;2024-03-06T13:18:17;10.94;56.00
84435;SHT30;74664;45.620;5.138;2024-03-06T13:20:44;11.02;54.77
84435;SHT30;74664;45.620;5.138;2024-03-06T13:23:10;11.07;53.65
84435;SHT30;74664;45.620;5.138;2024-03-06T13:25:37;11.15;52.24
84435;SHT30;74664;45.620;5.138;2024-03-06T13:28:05;11.28;52.54
84435;SHT30;74664;45.620;5.138;2024-03-06T13:30:32;11.33;52.80
84435;SHT30;74664;45.620;5.138;2024-03-06T13:32:59;11.38;52.99
84435;SHT30;74664;45.620;5.138;2024-03-06T13:35:25;11.46;53.28
84435;SHT30;74664;45.620;5.138;2024-03-06T13:37:52;11.49;51.48
84435;SHT30;74664;45.620;5.138;2024-03-06T13:40:19;11.52;52.45
84435;SHT30;74664;45.620;5.138;2024-03-06T13:42:45;11.52;52.53
84435;SHT30;74664;45.620;5.138;2024-03-06T13:45:14;11.53;52.35
84435;SHT30;74664;45.620;5.138;2024-03-06T13:47:42;11.58;52.04
84435;SHT30;74664;45.620;5.138;2024-03-06T13:50:10;11.56;52.20
84435;SHT30;74664;45.620;5.138;2024-03-06T13:52:38;11.59;52.30
84435;SHT30;74664;45.620;5.138;2024-03-06T13:55:06;11.62;52.64
84435;SHT30;74664;45.620;5.138;2024-03-06T13:57:33;11.65;52.57
84435;SHT30;74664;45.620;5.138;2024-03-06T14:00:00;11.70;52.76
84435;SHT30;74664;45.620;5.138;2024-03-06T14:02:28;11.76;52.96
84435;SHT30;74664;45.620;5.138;2024-03-06T14:04:54;11.80;52.65
84435;SHT30;74664;45.620;5.138;2024-03-06T14:07:21;11.86;52.19
84435;SHT30;74664;45.620;5.138;2024-03-06T14:09:49;11.86;50.18
84435;SHT30;74664;45.620;5.138;2024-03-06T14:12:15;11.84;50.80
84435;SHT30;74664;45.620;5.138;2024-03-06T14:14:42;11.84;49.72
84435;SHT30;74664;45.620;5.138;2024-03-06T14:17:10;11.79;50.10
84435;SHT30;74664;45.620;5.138;2024-03-06T14:19:39;11.71;50.51
84435;SHT30;74664;45.620;5.138;2024-03-06T14:22:06;11.67;51.14
84435;SHT30;74664;45.620;5.138;2024-03-06T14:24:32;11.63;50.54
84435;SHT30;74664;45.620;5.138;2024-03-06T14:26:59;11.59;51.11
84435;SHT30;74664;45.620;5.138;2024-03-06T14:29:26;11.56;51.68
84435;SHT30;74664;45.620;5.138;2024-03-06T14:31:53;11.52;52.72
84435;SHT30;74664;45.620;5.138;2024-03-06T14:34:20;11.50;53.60
84435;SHT30;74664;45.620;5.138;2024-03-06T14:36:50;11.40;54.11
84435;SHT30;74664;45.620;5.138;2024-03-06T14:39:16;11.35;55.08
84435;SHT30;74664;45.620;5.138;2024-03-06T14:41:43;11.32;55.53
84435;SHT30;74664;45.620;5.138;2024-03-06T14:44:12;11.28;55.57
84435;SHT30;74664;45.620;5.138;2024-03-06T14:46:39;11.26;55.93
84435;SHT30;74664;45.620;5.138;2024-03-06T14:49:06;11.23;56.37
84435;SHT30;74664;45.620;5.138;2024-03-06T14:51:33;11.22;56.64
84435;SHT30;74664;45.620;5.138;2024-03-06T14:54:01;11.19;56.76
84435;SHT30;74664;45.620;5.138;2024-03-06T14:56:28;11.15;56.88
84435;SHT30;74664;45.620;5.138;2024-03-06T14:58:56;11.15;56.99
84435;SHT30;74664;45.620;5.138;2024-03-06T15:01:23;11.12;56.28
84435;SHT30;74664;45.620;5.138;2024-03-06T15:03:50;11.10;56.37
84435;SHT30;74664;45.620;5.138;2024-03-06T15:06:17;11.08;56.78
84435;SHT30;74664;45.620;5.138;2024-03-06T15:08:43;11.07;56.97
84435;SHT30;74664;45.620;5.138;2024-03-06T15:11:12;11.05;57.17
84435;SHT30;74664;45.620;5.138;2024-03-06T15:13:39;11.01;57.15
84435;SHT30;74664;45.620;5.138;2024-03-06T15:16:06;11.02;57.24
84435;SHT30;74664;45.620;5.138;2024-03-06T15:18:33;11.02;57.24
84435;SHT30;74664;45.620;5.138;2024-03-06T15:21:00;10.98;56.87
84435;SHT30;74664;45.620;5.138;2024-03-06T15:23:27;10.97;56.92
84435;SHT30;74664;45.620;5.138;2024-03-06T15:25:53;10.95;57.00
84435;SHT30;74664;45.620;5.138;2024-03-06T15:28:22;10.91;56.65
84435;SHT30;74664;45.620;5.138;2024-03-06T15:30:49;10.87;56.29
84435;SHT30;74664;45.620;5.138;2024-03-06T15:33:15;10.82;56.21
84435;SHT30;74664;45.620;5.138;2024-03-06T15:35:42;10.81;56.24
84435;SHT30;74664;45.620;5.138;2024-03-06T15:38:09;10.81;56.17
84435;SHT30;74664;45.620;5.138;2024-03-06T15:40:36;10.78;55.96